Orbital elements of CZ-4B DEB
| Launched | 7 September 2004 |
| Flight ended | – |
| Launch site | Taiyuan Space Center, PRC |
| Owner | People's Republic of China |
| NORAD ID | 29042 |
| Date fetched |
Epoch osculation |
Inc. [°] |
Ecc. | RA asc node [hr] |
Arg Peri. [°] |
Mean anom [°] |
Mean motion [rev/day] |
Abs. mag |
| Date fetched |
Epoch osculation |
Inc. [°] |
Ecc. | RA asc node [hr] |
Arg Peri. [°] |
Mean anom [°] |
Mean motion [rev/day] |
Abs. mag |
| 2026 May 04 17:57 | 2026 Apr 29 06:29:48 | 97.5378 | 0.00113 | 8.9103 | 159.0053 | 201.1643 | 15.09885 | – |
| 2026 May 03 17:57 | 2026 Apr 29 06:29:48 | 97.5378 | 0.00113 | 8.9103 | 159.0053 | 201.1643 | 15.09885 | – |
| 2026 May 02 17:57 | 2026 Apr 29 06:29:48 | 97.5378 | 0.00113 | 8.9103 | 159.0053 | 201.1643 | 15.09885 | – |
| 2026 May 01 17:56 | 2026 Apr 29 06:29:48 | 97.5378 | 0.00113 | 8.9103 | 159.0053 | 201.1643 | 15.09885 | – |
| 2026 Apr 30 17:56 | 2026 Apr 29 06:29:48 | 97.5378 | 0.00113 | 8.9103 | 159.0053 | 201.1643 | 15.09885 | – |
| 2026 Apr 29 17:57 | 2026 Apr 21 18:45:52 | 97.5398 | 0.00106 | 8.4190 | 183.9623 | 201.1643 | 15.09885 | – |
| 2026 Apr 28 17:56 | 2026 Apr 21 18:45:52 | 97.5398 | 0.00106 | 8.4190 | 183.9623 | 201.1643 | 15.09885 | – |
| 2026 Apr 27 17:58 | 2026 Apr 21 18:45:52 | 97.5398 | 0.00106 | 8.4190 | 183.9623 | 201.1643 | 15.09885 | – |
| 2026 Apr 26 17:58 | 2026 Apr 21 18:45:52 | 97.5398 | 0.00106 | 8.4190 | 183.9623 | 201.1643 | 15.09885 | – |
| 2026 Apr 25 17:58 | 2026 Apr 21 18:45:52 | 97.5398 | 0.00106 | 8.4190 | 183.9623 | 201.1643 | 15.09885 | – |
| 2026 Apr 24 17:59 | 2026 Apr 21 18:45:52 | 97.5398 | 0.00106 | 8.4190 | 183.9623 | 201.1643 | 15.09885 | – |
| 2026 Apr 23 17:57 | 2026 Apr 18 06:27:50 | 97.5395 | 0.00102 | 8.1886 | 195.9201 | 201.1643 | 15.09885 | – |
| 2026 Apr 22 17:57 | 2026 Apr 18 06:27:50 | 97.5395 | 0.00102 | 8.1886 | 195.9201 | 201.1643 | 15.09885 | – |
| 2026 Apr 21 17:57 | 2026 Apr 18 06:27:50 | 97.5395 | 0.00102 | 8.1886 | 195.9201 | 201.1643 | 15.09885 | – |
| 2026 Apr 20 17:57 | 2026 Apr 18 06:27:50 | 97.5395 | 0.00102 | 8.1886 | 195.9201 | 201.1643 | 15.09885 | – |
| 2026 Apr 19 17:58 | 2026 Apr 18 06:27:50 | 97.5395 | 0.00102 | 8.1886 | 195.9201 | 201.1643 | 15.09885 | – |
| 2026 Apr 18 17:56 | 2026 Apr 11 18:35:07 | 97.5406 | 0.00095 | 7.7624 | 219.7197 | 201.1643 | 15.09885 | – |
| 2026 Apr 16 17:57 | 2026 Apr 11 18:35:07 | 97.5406 | 0.00095 | 7.7624 | 219.7197 | 201.1643 | 15.09885 | – |
| 2026 Apr 14 17:57 | 2026 Apr 11 18:35:07 | 97.5406 | 0.00095 | 7.7624 | 219.7197 | 201.1643 | 15.09885 | – |
| 2026 Apr 13 17:57 | 2026 Apr 11 18:35:07 | 97.5406 | 0.00095 | 7.7624 | 219.7197 | 201.1643 | 15.09885 | – |
| 2026 Apr 12 17:57 | 2026 Apr 05 06:42:16 | 97.5412 | 0.00093 | 7.3364 | 244.2051 | 201.1643 | 15.09885 | – |
| 2026 Apr 11 17:57 | 2026 Apr 05 06:42:16 | 97.5412 | 0.00093 | 7.3364 | 244.2051 | 201.1643 | 15.09885 | – |
| 2026 Apr 10 17:58 | 2026 Apr 05 06:42:16 | 97.5412 | 0.00093 | 7.3364 | 244.2051 | 201.1643 | 15.09885 | – |
| 2026 Apr 09 18:01 | 2026 Apr 05 06:42:16 | 97.5412 | 0.00093 | 7.3364 | 244.2051 | 201.1643 | 15.09885 | – |
| 2026 Apr 08 17:57 | 2026 Apr 05 06:42:16 | 97.5412 | 0.00093 | 7.3364 | 244.2051 | 201.1643 | 15.09885 | – |
| 2026 Apr 07 17:57 | 2026 Mar 29 18:49:07 | 97.5413 | 0.00091 | 6.9103 | 271.7995 | 201.1643 | 15.09885 | – |